createdAt,value
2022-08-10T00:00:39.515Z,1.65
2022-08-10T00:05:43.627Z,1.60
2022-08-10T00:10:54.793Z,1.50
2022-08-10T00:15:56.261Z,1.70
2022-08-10T00:20:57.690Z,1.95
2022-08-10T00:25:59.295Z,1.33
2022-08-10T00:31:00.755Z,1.65
2022-08-10T00:36:02.171Z,1.23
2022-08-10T00:41:03.752Z,1.40
2022-08-10T00:46:06.302Z,1.50
2022-08-10T00:51:07.761Z,1.48
2022-08-10T00:57:10.033Z,1.33
2022-08-10T01:02:08.625Z,1.30
2022-08-10T01:07:07.798Z,1.40
2022-08-10T01:12:41.052Z,1.42
2022-08-10T01:17:50.236Z,1.45
2022-08-10T01:23:11.622Z,1.60
2022-08-10T01:28:42.658Z,1.50
2022-08-10T01:33:59.163Z,1.60
2022-08-10T01:39:06.439Z,1.50
2022-08-10T01:44:12.249Z,1.48
2022-08-10T01:49:15.700Z,1.48
2022-08-10T01:54:22.655Z,1.48
2022-08-10T01:59:30.094Z,1.40
2022-08-10T02:04:32.753Z,1.50
2022-08-10T02:09:40.429Z,1.42
2022-08-10T02:14:44.685Z,1.27
2022-08-10T02:19:47.092Z,1.58
2022-08-10T02:24:48.853Z,1.50
2022-08-10T02:29:51.030Z,1.50
2022-08-10T02:34:53.149Z,1.90
2022-08-10T02:39:54.610Z,1.40
2022-08-10T02:45:27.247Z,1.60
2022-08-10T02:50:34.166Z,1.55
2022-08-10T02:55:40.600Z,1.38
2022-08-10T03:00:46.957Z,1.40
2022-08-10T03:05:50.478Z,1.75
2022-08-10T03:10:52.778Z,2.40
2022-08-10T03:15:55.200Z,1.50
2022-08-10T03:20:57.701Z,1.95
2022-08-10T03:25:59.720Z,1.90
2022-08-10T03:31:01.715Z,1.70
2022-08-10T03:36:41.641Z,1.70
2022-08-10T03:41:35.537Z,1.83
2022-08-10T03:46:38.879Z,1.88
2022-08-10T03:51:40.712Z,1.60
2022-08-10T03:56:42.303Z,1.85
2022-08-10T04:02:44.275Z,1.70
2022-08-10T04:07:05.991Z,1.90
2022-08-10T04:12:07.549Z,1.80
2022-08-10T04:17:13.785Z,1.90
2022-08-10T04:22:17.949Z,2.13
2022-08-10T04:27:19.492Z,2.20
2022-08-10T04:32:21.931Z,2.38
2022-08-10T04:37:23.678Z,2.20
2022-08-10T04:42:25.219Z,2.10
2022-08-10T04:47:57.503Z,2.17
2022-08-10T04:52:48.043Z,2.50
2022-08-10T04:57:49.508Z,2.83
2022-08-10T05:02:52.110Z,3.72
2022-08-10T05:07:56.677Z,3.30
2022-08-10T05:12:58.520Z,3.50
2022-08-10T05:18:08.361Z,3.90
2022-08-10T05:23:11.481Z,4.47
2022-08-10T05:28:13.057Z,4.15
2022-08-10T05:33:14.643Z,4.07
2022-08-10T05:38:16.986Z,3.92
2022-08-10T05:43:19.416Z,4.13
2022-08-10T05:48:54.899Z,3.80
2022-08-10T05:54:02.030Z,4.57
2022-08-10T05:59:04.481Z,4.38
2022-08-10T06:04:07.278Z,4.00
2022-08-10T06:09:09.378Z,4.28
2022-08-10T06:14:29.477Z,5.00
2022-08-10T06:19:31.779Z,3.97
2022-08-10T06:24:34.167Z,4.80
2022-08-10T06:29:36.851Z,4.53
2022-08-10T06:34:49.266Z,4.70
2022-08-10T06:39:50.833Z,4.65
2022-08-10T06:44:52.478Z,4.68
2022-08-10T06:49:59.798Z,4.45
2022-08-10T06:55:05.420Z,5.05
2022-08-10T07:00:09.449Z,4.38
2022-08-10T07:05:15.152Z,4.20
2022-08-10T07:10:18.800Z,4.45
2022-08-10T07:15:21.113Z,4.68
2022-08-10T07:20:23.047Z,4.45
2022-08-10T07:25:25.604Z,4.72
2022-08-10T07:30:30.213Z,4.40
2022-08-10T07:35:41.798Z,3.92
2022-08-10T07:40:45.523Z,3.55
2022-08-10T07:45:47.792Z,4.22
2022-08-10T07:50:51.118Z,3.83
2022-08-10T07:56:07.263Z,3.78
2022-08-10T08:01:15.589Z,4.07
2022-08-10T08:06:20.948Z,3.75
2022-08-10T08:11:25.675Z,3.63
2022-08-10T08:16:29.089Z,3.55
2022-08-10T08:24:04.877Z,3.78
2022-08-10T08:26:52.610Z,3.65
2022-08-10T08:32:02.493Z,4.07
2022-08-10T08:37:05.652Z,3.97
2022-08-10T08:42:15.418Z,3.30
2022-08-10T08:48:03.871Z,3.45
2022-08-10T08:52:53.802Z,3.92
2022-08-10T08:58:01.672Z,3.60
2022-08-10T09:03:06.041Z,3.42
2022-08-10T09:08:19.788Z,3.58
2022-08-10T09:13:34.828Z,3.33
2022-08-10T09:18:42.519Z,3.13
2022-08-10T09:24:05.702Z,3.30
2022-08-10T09:29:12.888Z,2.80
2022-08-10T09:36:23.505Z,3.03
2022-08-10T09:40:56.953Z,2.90
2022-08-10T09:45:22.707Z,2.60
2022-08-10T09:51:09.366Z,3.47
2022-08-10T09:56:19.336Z,2.97
2022-08-10T10:02:00.689Z,3.40
2022-08-10T10:06:49.120Z,3.03
2022-08-10T10:12:10.233Z,3.42
2022-08-10T10:17:15.867Z,3.55
2022-08-10T10:22:36.088Z,3.00
2022-08-10T10:27:48.144Z,3.08
2022-08-10T10:33:08.481Z,2.97
2022-08-10T10:38:16.813Z,3.10
2022-08-10T10:43:42.026Z,2.80
2022-08-10T10:48:50.398Z,2.80
2022-08-10T10:58:53.256Z,3.00
2022-08-10T11:04:03.737Z,2.70
2022-08-10T11:10:06.014Z,2.60
2022-08-10T11:14:39.256Z,2.20
2022-08-10T11:20:01.842Z,2.40
2022-08-10T11:25:14.852Z,2.30
2022-08-10T11:30:20.648Z,2.30
2022-08-10T11:35:38.553Z,2.30
2022-08-10T11:40:43.362Z,2.10
2022-08-10T11:45:52.168Z,2.25
2022-08-10T11:50:59.092Z,2.20
2022-08-10T11:56:04.774Z,2.00
2022-08-10T12:01:14.370Z,2.20
2022-08-10T12:06:28.687Z,1.80
2022-08-10T12:11:38.838Z,2.03
2022-08-10T12:16:41.474Z,2.20
2022-08-10T12:21:47.803Z,2.33
2022-08-10T12:26:58.276Z,2.20
2022-08-10T12:32:05.435Z,2.08
2022-08-10T12:37:15.971Z,2.00
2022-08-10T12:42:36.999Z,1.98
2022-08-10T12:47:48.038Z,1.77
2022-08-10T12:52:57.788Z,2.17
2022-08-10T12:58:00.769Z,1.98
2022-08-10T13:03:07.903Z,2.00
2022-08-10T13:08:28.337Z,1.85
2022-08-10T13:13:34.979Z,1.65
2022-08-10T13:18:41.619Z,1.73
2022-08-10T13:24:04.868Z,1.90
2022-08-10T13:29:12.885Z,1.67
2022-08-10T13:34:43.503Z,1.80
2022-08-10T13:39:57.712Z,1.77
2022-08-10T13:45:15.582Z,1.80
2022-08-10T13:50:33.339Z,1.77
2022-08-10T13:55:53.554Z,1.85
2022-08-10T14:00:58.019Z,1.80
2022-08-10T14:05:59.724Z,1.63
2022-08-10T14:11:11.638Z,1.73
2022-08-10T14:16:14.385Z,2.35
2022-08-10T14:21:16.194Z,2.00
2022-08-10T14:26:22.643Z,1.80
2022-08-10T14:31:29.044Z,1.85
2022-08-10T14:36:40.395Z,1.73
2022-08-10T14:42:04.604Z,1.80
2022-08-10T14:47:51.723Z,2.35
2022-08-10T14:52:27.258Z,2.00
2022-08-10T14:58:19.246Z,1.92
2022-08-10T15:02:55.939Z,1.80
2022-08-10T15:08:00.135Z,2.00
2022-08-10T15:13:06.603Z,1.90
2022-08-10T15:18:29.468Z,2.30
2022-08-10T15:23:33.764Z,2.40
2022-08-10T15:29:22.349Z,5.82
2022-08-10T15:34:37.710Z,6.50
2022-08-10T15:40:21.787Z,8.25
2022-08-10T15:45:07.701Z,9.43
2022-08-10T15:50:09.257Z,3.45
2022-08-10T15:55:43.164Z,2.90
2022-08-10T16:00:38.089Z,2.53
2022-08-10T16:06:01.623Z,2.17
2022-08-10T16:11:05.745Z,2.40
2022-08-10T16:16:08.646Z,2.00
2022-08-10T16:21:15.150Z,2.33
2022-08-10T16:26:18.662Z,1.90
2022-08-10T16:31:22.291Z,1.83
2022-08-10T16:36:31.154Z,2.03
2022-08-10T16:42:04.007Z,1.80
2022-08-10T16:46:55.510Z,1.90
2022-08-10T16:51:57.118Z,2.33
2022-08-10T16:57:02.680Z,2.00
2022-08-10T17:02:04.966Z,1.83
2022-08-10T17:07:11.545Z,2.00
2022-08-10T17:12:14.231Z,1.70
2022-08-10T17:17:20.623Z,1.90
2022-08-10T17:22:23.168Z,2.00
2022-08-10T17:28:05.487Z,2.15
2022-08-10T17:32:55.411Z,1.85
2022-08-10T17:38:10.983Z,1.88
2022-08-10T17:43:12.815Z,1.85
2022-08-10T17:48:35.416Z,1.92
2022-08-10T17:53:41.551Z,2.20
2022-08-10T17:58:49.004Z,1.92
2022-08-10T18:03:52.222Z,2.15
2022-08-10T18:09:02.304Z,2.10
2022-08-10T18:14:06.158Z,2.38
2022-08-10T18:19:11.294Z,2.45
2022-08-10T18:24:16.766Z,2.42
2022-08-10T18:29:22.963Z,2.20
2022-08-10T18:34:25.253Z,2.30
2022-08-10T18:39:32.258Z,2.00
2022-08-10T18:44:39.964Z,2.20
2022-08-10T18:49:51.048Z,2.00
2022-08-10T18:54:55.735Z,2.08
2022-08-10T19:00:08.690Z,2.10
2022-08-10T19:05:31.746Z,2.30
2022-08-10T19:10:33.705Z,2.00
2022-08-10T19:15:52.146Z,2.05
2022-08-10T19:21:03.055Z,1.87
2022-08-10T19:26:42.866Z,1.75
2022-08-10T19:31:48.144Z,2.20
2022-08-10T19:36:55.195Z,1.90
2022-08-10T19:42:11.648Z,1.80
2022-08-10T19:47:20.370Z,2.10
2022-08-10T19:52:30.813Z,2.00
2022-08-10T19:57:38.411Z,2.30
2022-08-10T20:02:58.673Z,1.95
2022-08-10T20:08:00.130Z,1.88
2022-08-10T20:13:10.780Z,2.20
2022-08-10T20:18:19.225Z,1.80
2022-08-10T20:23:29.867Z,2.08
2022-08-10T20:28:54.697Z,1.95
2022-08-10T20:34:01.203Z,2.00
2022-08-10T20:39:04.576Z,1.90
2022-08-10T20:44:24.902Z,2.30
2022-08-10T20:49:26.327Z,2.30
2022-08-10T20:54:38.447Z,2.50
2022-08-10T21:00:02.355Z,2.00
2022-08-10T21:05:06.696Z,2.50
2022-08-10T21:10:20.137Z,2.22
2022-08-10T21:15:55.468Z,2.30
2022-08-10T21:21:37.717Z,2.25
2022-08-10T21:26:43.023Z,2.20
2022-08-10T21:31:59.591Z,2.28
2022-08-10T21:37:08.278Z,2.05
2022-08-10T21:42:36.647Z,2.10
2022-08-10T21:48:17.218Z,2.60
2022-08-10T21:53:45.065Z,2.42
2022-08-10T21:59:09.884Z,2.20
2022-08-10T22:04:30.857Z,2.30
2022-08-10T22:09:53.975Z,2.10
2022-08-10T22:15:14.123Z,2.47
2022-08-10T22:20:42.703Z,2.40
2022-08-10T22:26:13.279Z,2.15
2022-08-10T22:36:59.231Z,2.47
2022-08-10T22:42:59.210Z,2.40
2022-08-10T22:48:18.872Z,2.90
2022-08-10T22:53:57.267Z,2.80
2022-08-10T22:58:58.725Z,2.40
2022-08-10T23:04:00.207Z,2.78
2022-08-10T23:09:02.831Z,2.75
2022-08-10T23:14:06.160Z,2.58
2022-08-10T23:19:10.560Z,2.85
2022-08-10T23:24:13.300Z,2.60
2022-08-10T23:29:15.622Z,2.67
2022-08-10T23:34:31.428Z,2.60
2022-08-10T23:39:34.413Z,2.70
2022-08-10T23:44:43.216Z,2.85
2022-08-10T23:49:45.366Z,2.70
2022-08-10T23:54:48.513Z,2.60
2022-08-10T23:59:51.780Z,2.78
